Time;durP1;ratioP1;P1;durP2;ratioP2;P2;SDS_P1;SDS_P2;PMS_P1;PMS_P2;Temp;Humidity;BMP_temperature;BMP_pressure;BME280_temperature;BME280_humidity;BME280_pressure;Samples;Min_cycle;Max_cycle;Signal;HPM_P1;HPM_P2
2021/08/06 00:01:37;;;;;;;;;;;;;;;;;;6083832;23;19925;-84
2021/08/06 00:04:12;;;;;;;;;;;;;;;;;;6086448;23;19927;-84
2021/08/06 00:06:50;;;;;;;;;;;;;;;;;;6085851;23;19931;-86
2021/08/06 00:09:23;;;;;;;;;;;;;;;;;;6077711;23;19921;-83
2021/08/06 00:12:04;;;;;;;;;;;;;;;;;;6076817;23;19921;-89
2021/08/06 00:36:28;;;;;;;;;;;;;;;;;;6132249;23;20317;-85
2021/08/06 00:39:16;;;;;;;;;;;;;;;;;;6099879;23;19936;-86
2021/08/06 00:41:58;;;;;;;;;;;;;;;;;;6076040;23;19932;-87
2021/08/06 00:44:37;;;;;;;;;;;;;;;;;;6076196;23;19921;-83
2021/08/06 00:47:17;;;;;;;;;;;;;;;;;;6073195;23;19921;-89
2021/08/06 00:49:46;;;;;;;;;;;;;;;;;;6076310;23;19935;-89
2021/08/06 00:52:20;;;;;;;;;;;;;;;;;;6075808;23;19936;-86
2021/08/06 00:54:57;;;;;;;;;;;;;;;;;;6076738;23;20355;-87
2021/08/06 00:57:38;;;;;;;;;;;;;;;;;;6100414;23;19973;-87
2021/08/06 01:00:20;;;;;;;;;;;;;;;;;;6077728;23;19921;-89
2021/08/06 01:02:59;;;;;;;;;;;;;;;;;;6098379;23;19925;-85
2021/08/06 01:05:38;;;;;;;;;;;;;;;;;;6078189;23;19936;-85
2021/08/06 01:08:20;;;;;;;;;;;;;;;;;;6053797;23;19931;-85
2021/08/06 01:11:01;;;;;;;;;;;;;;;;;;6099981;23;19967;-90
2021/08/06 01:13:51;;;;;;;;;;;;;;;;;;6075783;23;19921;-88
2021/08/06 01:16:39;;;;;;;;;;;;;;;;;;6075203;23;19921;-88
2021/08/06 01:19:30;;;;;;;;;;;;;;;;;;6074957;23;19925;-86
2021/08/06 01:22:10;;;;;;;;;;;;;;;;;;6074528;23;19921;-86
2021/08/06 01:24:51;;;;;;;;;;;;;;;;;;6054446;23;20269;-88
2021/08/06 01:27:26;;;;;;;;;;;;;;;;;;6075368;23;19968;-89
2021/08/06 03:51:22;;;;;;;;;;;;;;;;;;6125765;23;19921;-87
2021/08/06 03:53:54;;;;;;;;;;;;;;;;;;6078439;23;19921;-83
2021/08/06 03:56:23;;;;;;;;;;;;;;;;;;6075019;23;19921;-83
2021/08/06 03:58:54;;;;;;;;;;;;;;;;;;6075851;23;19928;-89
2021/08/06 04:01:23;;;;;;;;;;;;;;;;;;6076195;23;19928;-83
2021/08/06 04:03:52;;;;;;;;;;;;;;;;;;6076008;23;20313;-83
2021/08/06 04:06:22;;;;;;;;;;;;;;;;;;6071746;23;19924;-83
2021/08/06 04:08:51;;;;;;;;;;;;;;;;;;6076403;23;19921;-84
2021/08/06 04:11:21;;;;;;;;;;;;;;;;;;6073243;23;20274;-86
2021/08/06 04:13:50;;;;;;;;;;;;;;;;;;6074307;23;19921;-84
2021/08/06 04:16:21;;;;;;;;;;;;;;;;;;6072241;23;20387;-86
2021/08/06 04:18:57;;;;;;;;;;;;;;;;;;6097256;23;19921;-87
2021/08/06 04:21:27;;;;;;;;;;;;;;;;;;6077092;23;19925;-89
2021/08/06 04:23:56;;;;;;;;;;;;;;;;;;6078751;23;19921;-89
2021/08/06 04:26:25;;;;;;;;;;;;;;;;;;6075830;23;20306;-88
2021/08/06 04:32:33;;;;;;;;;;;;;;;;;;6126680;23;19931;-89
2021/08/06 04:35:35;;;;;;;;;;;;;;;;;;6073184;23;19978;-89
2021/08/06 04:48:18;;;;;;;;;;;;;;;;;;6124234;23;19936;-88
2021/08/06 04:57:36;;;;;;;;;;;;;;;;;;6150904;23;19976;-96
2021/08/06 05:00:08;;;;;;;;;;;;;;;;;;6103416;23;19949;-94
2021/08/06 05:02:37;;;;;;;;;;;;;;;;;;6101283;23;19957;-96
2021/08/06 07:19:59;;;;;;;;;;;;;;;;;;6149509;23;20224;-88
2021/08/06 07:22:33;;;;;;;;;;;;;;;;;;6100625;23;19921;-90
2021/08/06 07:25:12;;;;;;;;;;;;;;;;;;6094272;23;19931;-89
2021/08/06 07:27:54;;;;;;;;;;;;;;;;;;6092974;23;19925;-88
2021/08/06 07:30:40;;;;;;;;;;;;;;;;;;6091570;23;20233;-88
2021/08/06 07:37:34;;;;;;;;;;;;;;;;;;6107046;23;19928;-88
2021/08/06 07:40:17;;;;;;;;;;;;;;;;;;6094890;23;20330;-89
2021/08/06 07:42:54;;;;;;;;;;;;;;;;;;6121267;23;19920;-87
2021/08/06 07:45:27;;;;;;;;;;;;;;;;;;6099761;23;19925;-90
2021/08/06 07:48:00;;;;;;;;;;;;;;;;;;6099187;23;19927;-88
2021/08/06 07:50:37;;;;;;;;;;;;;;;;;;6123248;23;19924;-88
2021/08/06 07:53:09;;;;;;;;;;;;;;;;;;6096265;23;20341;-88
2021/08/06 07:55:39;;;;;;;;;;;;;;;;;;6091698;23;19924;-89
2021/08/06 07:58:08;;;;;;;;;;;;;;;;;;6093314;23;19925;-90
2021/08/06 08:00:37;;;;;;;;;;;;;;;;;;6119563;23;19921;-89
2021/08/06 08:03:05;;;;;;;;;;;;;;;;;;6097408;23;19927;-88
2021/08/06 08:05:37;;;;;;;;;;;;;;;;;;6121756;23;19931;-89
2021/08/06 08:08:09;;;;;;;;;;;;;;;;;;6095795;23;19947;-89
2021/08/06 08:10:39;;;;;;;;;;;;;;;;;;6093017;23;19920;-88
2021/08/06 08:13:22;;;;;;;;;;;;;;;;;;6094458;23;19925;-89
2021/08/06 08:15:55;;;;;;;;;;;;;;;;;;6094302;23;20337;-89
2021/08/06 08:18:26;;;;;;;;;;;;;;;;;;6098123;23;19932;-89
2021/08/06 08:20:54;;;;;;;;;;;;;;;;;;6120603;23;20357;-91
2021/08/06 08:23:24;;;;;;;;;;;;;;;;;;6121886;23;19931;-90
2021/08/06 08:25:54;;;;;;;;;;;;;;;;;;6122709;23;19946;-89
2021/08/06 08:28:31;;;;;;;;;;;;;;;;;;6122148;23;20362;-89
2021/08/06 08:31:04;;;;;;;;;;;;;;;;;;6120995;23;19924;-91
2021/08/06 08:33:33;;;;;;;;;;;;;;;;;;6144770;23;19928;-90
2021/08/06 08:36:02;;;;;;;;;;;;;;;;;;6144901;23;19928;-89
2021/08/06 08:38:32;;;;;;;;;;;;;;;;;;6121636;23;19928;-91
2021/08/06 08:41:00;;;;;;;;;;;;;;;;;;6145996;23;19928;-89
2021/08/06 08:43:29;;;;;;;;;;;;;;;;;;6171000;23;20146;-91
2021/08/06 08:45:58;;;;;;;;;;;;;;;;;;6146444;23;20334;-90
2021/08/06 08:48:26;;;;;;;;;;;;;;;;;;6136350;23;20241;-89
2021/08/06 08:50:55;;;;;;;;;;;;;;;;;;6116230;23;20397;-89
2021/08/06 08:53:26;;;;;;;;;;;;;;;;;;6116806;23;19924;-90
2021/08/06 08:55:56;;;;;;;;;;;;;;;;;;6144080;23;20265;-88
2021/08/06 08:58:25;;;;;;;;;;;;;;;;;;6117785;23;19928;-90
2021/08/06 09:00:54;;;;;;;;;;;;;;;;;;6120705;23;19920;-90
2021/08/06 09:03:38;;;;;;;;;;;;;;;;;;6147611;23;19925;-90
2021/08/06 09:06:11;;;;;;;;;;;;;;;;;;6146839;23;19928;-90
2021/08/06 09:08:40;;;;;;;;;;;;;;;;;;6121611;23;19920;-90
2021/08/06 09:11:28;;;;;;;;;;;;;;;;;;6115165;23;20050;-89
2021/08/06 09:14:23;;;;;;;;;;;;;;;;;;6141765;23;19931;-89
2021/08/06 09:16:56;;;;;;;;;;;;;;;;;;6117860;23;20560;-89
2021/08/06 09:19:24;;;;;;;;;;;;;;;;;;6140594;23;20467;-88
2021/08/06 09:21:53;;;;;;;;;;;;;;;;;;6116877;23;19921;-87
2021/08/06 09:24:21;;;;;;;;;;;;;;;;;;6094051;23;19921;-83
2021/08/06 09:26:51;;;;;;;;;;;;;;;;;;6146358;23;19921;-89
2021/08/06 09:29:21;;;;;;;;;;;;;;;;;;6092801;23;20319;-86
2021/08/06 09:31:56;;;;;;;;;;;;;;;;;;6117722;23;19920;-88
2021/08/06 09:34:25;;;;;;;;;;;;;;;;;;6091650;23;20266;-87
2021/08/06 09:36:59;;;;;;;;;;;;;;;;;;6117097;23;19921;-90
2021/08/06 09:39:30;;;;;;;;;;;;;;;;;;6124053;23;19924;-86
2021/08/06 09:42:08;;;;;;;;;;;;;;;;;;6091174;23;19935;-88
2021/08/06 09:44:37;;;;;;;;;;;;;;;;;;6129053;23;19936;-85
2021/08/06 09:47:18;;;;;;;;;;;;;;;;;;6093937;23;19921;-87
2021/08/06 09:49:47;;;;;;;;;;;;;;;;;;6114945;23;19925;-85
2021/08/06 09:52:15;;;;;;;;;;;;;;;;;;6144604;23;19931;-88
2021/08/06 09:54:48;;;;;;;;;;;;;;;;;;6096141;23;19921;-87
2021/08/06 09:57:18;;;;;;;;;;;;;;;;;;6094987;23;19925;-88
2021/08/06 09:59:50;;;;;;;;;;;;;;;;;;6095682;23;20414;-85
2021/08/06 10:02:20;;;;;;;;;;;;;;;;;;6089003;23;19924;-86
2021/08/06 10:04:59;;;;;;;;;;;;;;;;;;6087576;23;19925;-81
2021/08/06 10:07:27;;;;;;;;;;;;;;;;;;6125978;23;19983;-87
2021/08/06 10:09:56;;;;;;;;;;;;;;;;;;6117898;23;19921;-88
2021/08/06 10:12:26;;;;;;;;;;;;;;;;;;6087725;23;19947;-88
2021/08/06 10:14:54;;;;;;;;;;;;;;;;;;6097705;23;20364;-86
2021/08/06 10:17:22;;;;;;;;;;;;;;;;;;6119965;23;19924;-86
2021/08/06 10:19:51;;;;;;;;;;;;;;;;;;6113646;23;19928;-87
2021/08/06 10:22:19;;;;;;;;;;;;;;;;;;6146431;23;19921;-83
2021/08/06 10:24:48;;;;;;;;;;;;;;;;;;6140763;23;19925;-85
2021/08/06 10:27:19;;;;;;;;;;;;;;;;;;6119669;23;20265;-87
2021/08/06 10:29:56;;;;;;;;;;;;;;;;;;6119932;23;20371;-87
2021/08/06 10:32:24;;;;;;;;;;;;;;;;;;6144969;23;19920;-85
2021/08/06 10:35:09;;;;;;;;;;;;;;;;;;6119317;23;19921;-85
2021/08/06 10:37:57;;;;;;;;;;;;;;;;;;6114500;23;19924;-86
2021/08/06 10:40:45;;;;;;;;;;;;;;;;;;6140571;23;19931;-87
2021/08/06 10:43:34;;;;;;;;;;;;;;;;;;6123078;23;20342;-86
2021/08/06 10:46:05;;;;;;;;;;;;;;;;;;6142835;23;20366;-84
2021/08/06 10:48:34;;;;;;;;;;;;;;;;;;6112412;23;20478;-85
2021/08/06 10:51:21;;;;;;;;;;;;;;;;;;6146121;23;19924;-87
2021/08/06 10:53:50;;;;;;;;;;;;;;;;;;6123727;23;19925;-87
2021/08/06 10:56:29;;;;;;;;;;;;;;;;;;6120573;23;19925;-85
2021/08/06 10:58:58;;;;;;;;;;;;;;;;;;6156232;23;20238;-85
2021/08/06 11:01:37;;;;;;;;;;;;;;;;;;6123710;23;20760;-83
2021/08/06 11:04:06;;;;;;;;;;;;;;;;;;6145931;23;19928;-84
2021/08/06 11:06:35;;;;;;;;;;;;;;;;;;6146888;23;20345;-88
2021/08/06 11:09:04;;;;;;;;;;;;;;;;;;6144337;23;19924;-87
2021/08/06 11:11:56;;;;;;;;;;;;;;;;;;6123263;23;19927;-88
2021/08/06 11:14:55;;;;;;;;;;;;;;;;;;6158964;23;20364;-89
2021/08/06 11:17:25;;;;;;;;;;;;;;;;;;6158974;23;19920;-87
2021/08/06 11:19:56;;;;;;;;;;;;;;;;;;6151525;23;19920;-87
2021/08/06 11:22:26;;;;;;;;;;;;;;;;;;6123727;23;19924;-88
2021/08/06 11:24:56;;;;;;;;;;;;;;;;;;6120857;23;19921;-87
2021/08/06 11:27:32;;;;;;;;;;;;;;;;;;6120550;23;19943;-85
2021/08/06 11:30:01;;;;;;;;;;;;;;;;;;6121627;23;19928;-88
2021/08/06 11:32:31;;;;;;;;;;;;;;;;;;6146403;23;19921;-85
2021/08/06 11:35:01;;;;;;;;;;;;;;;;;;6120275;23;19928;-86
2021/08/06 11:37:45;;;;;;;;;;;;;;;;;;6122643;23;20133;-85
2021/08/06 11:40:14;;;;;;;;;;;;;;;;;;6116044;23;19924;-84
2021/08/06 11:42:46;;;;;;;;;;;;;;;;;;6118576;23;19929;-86
2021/08/06 11:45:15;;;;;;;;;;;;;;;;;;6141668;23;19928;-87
2021/08/06 11:47:46;;;;;;;;;;;;;;;;;;6120114;23;20771;-86
2021/08/06 11:50:14;;;;;;;;;;;;;;;;;;6142889;23;20208;-86
2021/08/06 11:52:43;;;;;;;;;;;;;;;;;;6145764;23;19924;-84
2021/08/06 11:55:13;;;;;;;;;;;;;;;;;;6144601;23;19925;-86
2021/08/06 11:57:42;;;;;;;;;;;;;;;;;;6121207;23;19925;-87
2021/08/06 12:00:24;;;;;;;;;;;;;;;;;;6141919;23;19920;-87
2021/08/06 12:03:04;;;;;;;;;;;;;;;;;;6122520;23;19920;-87
2021/08/06 12:05:33;;;;;;;;;;;;;;;;;;6123305;23;19924;-85
2021/08/06 12:08:16;;;;;;;;;;;;;;;;;;6147172;23;20369;-85
2021/08/06 12:10:45;;;;;;;;;;;;;;;;;;6142991;23;20261;-84
2021/08/06 12:13:14;;;;;;;;;;;;;;;;;;6124220;23;19936;-86
2021/08/06 12:15:42;;;;;;;;;;;;;;;;;;6121686;23;19924;-86
2021/08/06 12:18:12;;;;;;;;;;;;;;;;;;6119243;23;19932;-86
2021/08/06 12:20:42;;;;;;;;;;;;;;;;;;6095228;23;20439;-84
2021/08/06 12:23:10;;;;;;;;;;;;;;;;;;6142082;23;19920;-86
2021/08/06 12:25:39;;;;;;;;;;;;;;;;;;6094288;23;19924;-85
2021/08/06 12:28:17;;;;;;;;;;;;;;;;;;6120899;23;19955;-85
2021/08/06 12:30:46;;;;;;;;;;;;;;;;;;6090911;23;19927;-86
2021/08/06 12:33:22;;;;;;;;;;;;;;;;;;6096167;23;19924;-84
2021/08/06 12:35:51;;;;;;;;;;;;;;;;;;6095887;23;19921;-85
2021/08/06 12:38:23;;;;;;;;;;;;;;;;;;6095238;23;19935;-82
2021/08/06 12:40:51;;;;;;;;;;;;;;;;;;6097728;23;19920;-84
2021/08/06 12:43:20;;;;;;;;;;;;;;;;;;6094890;23;19951;-84
2021/08/06 12:46:03;;;;;;;;;;;;;;;;;;6118475;23;19924;-84
2021/08/06 12:48:33;;;;;;;;;;;;;;;;;;6119614;23;20361;-85
2021/08/06 12:51:16;;;;;;;;;;;;;;;;;;6116876;23;19921;-83
2021/08/06 12:53:44;;;;;;;;;;;;;;;;;;6129681;23;20219;-84
2021/08/06 12:56:12;;;;;;;;;;;;;;;;;;6095625;23;19921;-85
2021/08/06 12:58:41;;;;;;;;;;;;;;;;;;6123031;23;19924;-84
2021/08/06 13:01:09;;;;;;;;;;;;;;;;;;6120212;23;19929;-84
2021/08/06 13:03:43;;;;;;;;;;;;;;;;;;6094174;23;19925;-84
2021/08/06 13:06:12;;;;;;;;;;;;;;;;;;6093888;23;19921;-85
2021/08/06 13:08:43;;;;;;;;;;;;;;;;;;6089719;23;19924;-85
2021/08/06 13:11:12;;;;;;;;;;;;;;;;;;6094669;23;19927;-86
2021/08/06 13:13:41;;;;;;;;;;;;;;;;;;6118254;23;19924;-85
2021/08/06 13:16:10;;;;;;;;;;;;;;;;;;6117601;23;19931;-85
2021/08/06 13:18:39;;;;;;;;;;;;;;;;;;6099247;23;19929;-83
2021/08/06 13:21:08;;;;;;;;;;;;;;;;;;6142066;23;19925;-82
2021/08/06 13:23:38;;;;;;;;;;;;;;;;;;6120330;23;19953;-83
2021/08/06 13:26:06;;;;;;;;;;;;;;;;;;6120461;23;19921;-82
2021/08/06 13:28:35;;;;;;;;;;;;;;;;;;6122755;23;19927;-82
2021/08/06 13:31:04;;;;;;;;;;;;;;;;;;6122571;23;19932;-84
2021/08/06 13:33:33;;;;;;;;;;;;;;;;;;6134689;23;19920;-82
2021/08/06 13:36:02;;;;;;;;;;;;;;;;;;6139608;23;19920;-82
2021/08/06 13:38:32;;;;;;;;;;;;;;;;;;6166055;23;19927;-81
2021/08/06 13:41:00;;;;;;;;;;;;;;;;;;6168683;23;19924;-81
2021/08/06 13:43:29;;;;;;;;;;;;;;;;;;6156769;23;19925;-83
2021/08/06 13:45:57;;;;;;;;;;;;;;;;;;6131849;23;19930;-83
2021/08/06 13:48:26;;;;;;;;;;;;;;;;;;6126480;23;19949;-82
2021/08/06 13:50:54;;;;;;;;;;;;;;;;;;6124343;23;19946;-80
2021/08/06 13:53:40;;;;;;;;;;;;;;;;;;6159206;23;19924;-83
2021/08/06 13:56:11;;;;;;;;;;;;;;;;;;6122363;23;19921;-82
2021/08/06 13:58:39;;;;;;;;;;;;;;;;;;6128101;23;20345;-82
2021/08/06 14:01:07;;;;;;;;;;;;;;;;;;6130185;23;19925;-83
2021/08/06 14:03:36;;;;;;;;;;;;;;;;;;6129683;23;19921;-82
2021/08/06 14:06:07;;;;;;;;;;;;;;;;;;6129829;23;20082;-82
2021/08/06 14:08:35;;;;;;;;;;;;;;;;;;6130575;23;20365;-82
2021/08/06 14:11:05;;;;;;;;;;;;;;;;;;6129804;23;19921;-82
2021/08/06 14:13:33;;;;;;;;;;;;;;;;;;6131192;23;19920;-82
2021/08/06 14:16:02;;;;;;;;;;;;;;;;;;6134208;23;19920;-82
2021/08/06 14:18:32;;;;;;;;;;;;;;;;;;6154815;23;20222;-82
2021/08/06 14:21:00;;;;;;;;;;;;;;;;;;6132164;23;19921;-82
2021/08/06 14:23:31;;;;;;;;;;;;;;;;;;6153410;23;20215;-82
2021/08/06 14:26:02;;;;;;;;;;;;;;;;;;6131815;23;19931;-81
2021/08/06 14:28:32;;;;;;;;;;;;;;;;;;6156290;23;19921;-84
2021/08/06 14:31:00;;;;;;;;;;;;;;;;;;6153574;23;19924;-83
2021/08/06 14:33:29;;;;;;;;;;;;;;;;;;6129095;23;19924;-82
2021/08/06 14:35:57;;;;;;;;;;;;;;;;;;6132077;23;20004;-79
2021/08/06 14:38:25;;;;;;;;;;;;;;;;;;6156765;23;19927;-84
2021/08/06 14:40:54;;;;;;;;;;;;;;;;;;6126981;23;19921;-83
2021/08/06 14:43:22;;;;;;;;;;;;;;;;;;6126764;23;19928;-82
2021/08/06 14:45:51;;;;;;;;;;;;;;;;;;6156551;23;19925;-84
2021/08/06 14:48:20;;;;;;;;;;;;;;;;;;6129908;23;19924;-83
2021/08/06 14:50:48;;;;;;;;;;;;;;;;;;6132294;23;19921;-84
2021/08/06 14:53:17;;;;;;;;;;;;;;;;;;6132616;23;19920;-82
2021/08/06 14:55:45;;;;;;;;;;;;;;;;;;6133488;23;19920;-82
2021/08/06 14:58:13;;;;;;;;;;;;;;;;;;6132539;23;19924;-82
2021/08/06 15:00:42;;;;;;;;;;;;;;;;;;6129529;23;19931;-85
2021/08/06 15:03:11;;;;;;;;;;;;;;;;;;6130325;23;19927;-83
2021/08/06 15:05:40;;;;;;;;;;;;;;;;;;6130150;23;19940;-85
2021/08/06 15:08:08;;;;;;;;;;;;;;;;;;6129969;23;19925;-84
2021/08/06 15:10:37;;;;;;;;;;;;;;;;;;6126011;23;20261;-84
2021/08/06 15:13:06;;;;;;;;;;;;;;;;;;6152755;23;19924;-84
2021/08/06 15:15:47;;;;;;;;;;;;;;;;;;6124932;23;19920;-85
2021/08/06 15:18:17;;;;;;;;;;;;;;;;;;6127025;23;19924;-84
2021/08/06 15:20:45;;;;;;;;;;;;;;;;;;6127338;23;20349;-82
2021/08/06 15:23:15;;;;;;;;;;;;;;;;;;6106631;23;19921;-81
2021/08/06 15:25:43;;;;;;;;;;;;;;;;;;6107252;23;19920;-82
2021/08/06 15:28:13;;;;;;;;;;;;;;;;;;6107344;23;19937;-83
2021/08/06 15:30:41;;;;;;;;;;;;;;;;;;6131824;23;19929;-81
2021/08/06 15:33:09;;;;;;;;;;;;;;;;;;6106854;23;20349;-81
2021/08/06 15:35:39;;;;;;;;;;;;;;;;;;6129571;23;19921;-84
2021/08/06 15:38:07;;;;;;;;;;;;;;;;;;6108109;23;19925;-83
2021/08/06 15:41:13;;;;;;;;;;;;;;;;;;6104257;23;19924;-81
2021/08/06 15:43:50;;;;;;;;;;;;;;;;;;6104792;23;19921;-83
2021/08/06 15:46:29;;;;;;;;;;;;;;;;;;6104663;23;19928;-85
2021/08/06 15:48:57;;;;;;;;;;;;;;;;;;6105805;23;19921;-81
2021/08/06 15:51:27;;;;;;;;;;;;;;;;;;6143765;23;19939;-84
2021/08/06 15:53:56;;;;;;;;;;;;;;;;;;6135677;23;19924;-84
2021/08/06 15:56:24;;;;;;;;;;;;;;;;;;6117569;23;20223;-82
2021/08/06 15:58:52;;;;;;;;;;;;;;;;;;6102041;23;19926;-81
2021/08/06 16:01:20;;;;;;;;;;;;;;;;;;6099503;23;20344;-82
2021/08/06 16:03:49;;;;;;;;;;;;;;;;;;6098118;23;19931;-85
2021/08/06 16:06:30;;;;;;;;;;;;;;;;;;6101850;23;19932;-85
2021/08/06 16:08:59;;;;;;;;;;;;;;;;;;6126284;23;19921;-83
2021/08/06 16:11:27;;;;;;;;;;;;;;;;;;6100737;23;19925;-86
2021/08/06 16:13:56;;;;;;;;;;;;;;;;;;6124452;23;19928;-85
2021/08/06 16:16:24;;;;;;;;;;;;;;;;;;6098249;23;19925;-86
2021/08/06 16:18:54;;;;;;;;;;;;;;;;;;6104107;23;19920;-86
2021/08/06 16:21:23;;;;;;;;;;;;;;;;;;6120582;23;19932;-84
2021/08/06 16:23:52;;;;;;;;;;;;;;;;;;6144956;23;19924;-86
2021/08/06 16:26:20;;;;;;;;;;;;;;;;;;6124791;23;20261;-87
2021/08/06 16:28:49;;;;;;;;;;;;;;;;;;6147893;23;19925;-87
2021/08/06 16:31:34;;;;;;;;;;;;;;;;;;6124044;23;19940;-86
2021/08/06 16:34:02;;;;;;;;;;;;;;;;;;6146204;23;19932;-88
2021/08/06 16:36:31;;;;;;;;;;;;;;;;;;6122074;23;19953;-88
2021/08/06 16:39:00;;;;;;;;;;;;;;;;;;6144329;23;19921;-87
2021/08/06 16:41:29;;;;;;;;;;;;;;;;;;6123629;23;19920;-87
2021/08/06 16:43:57;;;;;;;;;;;;;;;;;;6122152;23;20261;-85
2021/08/06 16:46:25;;;;;;;;;;;;;;;;;;6121884;23;20328;-87
2021/08/06 16:48:53;;;;;;;;;;;;;;;;;;6119951;23;19925;-85
2021/08/06 16:51:22;;;;;;;;;;;;;;;;;;6141749;23;19921;-86
2021/08/06 16:53:50;;;;;;;;;;;;;;;;;;6122407;23;20342;-87
2021/08/06 16:56:19;;;;;;;;;;;;;;;;;;6140433;23;20361;-88
2021/08/06 16:58:48;;;;;;;;;;;;;;;;;;6116877;23;19924;-86
2021/08/06 17:01:16;;;;;;;;;;;;;;;;;;6142439;23;19951;-87
2021/08/06 17:03:46;;;;;;;;;;;;;;;;;;6138438;23;19925;-85
2021/08/06 17:06:15;;;;;;;;;;;;;;;;;;6137924;23;20332;-86
2021/08/06 17:08:43;;;;;;;;;;;;;;;;;;6138679;23;19920;-86
2021/08/06 17:11:11;;;;;;;;;;;;;;;;;;6118450;23;19925;-87
2021/08/06 17:13:41;;;;;;;;;;;;;;;;;;6114558;23;20360;-86
2021/08/06 17:16:09;;;;;;;;;;;;;;;;;;6115750;23;19924;-86
2021/08/06 17:18:37;;;;;;;;;;;;;;;;;;6118098;23;19921;-86
2021/08/06 17:21:06;;;;;;;;;;;;;;;;;;6112685;23;19928;-87
2021/08/06 17:23:34;;;;;;;;;;;;;;;;;;6138871;23;19924;-87
2021/08/06 17:26:02;;;;;;;;;;;;;;;;;;6138646;23;19977;-87
2021/08/06 17:28:30;;;;;;;;;;;;;;;;;;6139935;23;19924;-87
2021/08/06 17:31:00;;;;;;;;;;;;;;;;;;6142762;23;19936;-87
2021/08/06 17:33:28;;;;;;;;;;;;;;;;;;6141208;23;20377;-85
2021/08/06 17:35:56;;;;;;;;;;;;;;;;;;6142072;23;20364;-86
2021/08/06 17:38:24;;;;;;;;;;;;;;;;;;6139237;23;20355;-87
2021/08/06 17:40:53;;;;;;;;;;;;;;;;;;6121233;23;19931;-88
2021/08/06 17:43:21;;;;;;;;;;;;;;;;;;6116803;23;20281;-88
2021/08/06 17:45:50;;;;;;;;;;;;;;;;;;6116092;23;19943;-85
2021/08/06 17:48:20;;;;;;;;;;;;;;;;;;6137944;23;20376;-87
2021/08/06 17:50:49;;;;;;;;;;;;;;;;;;6142101;23;19925;-88
2021/08/06 17:53:18;;;;;;;;;;;;;;;;;;6120418;23;19925;-87
2021/08/06 17:55:53;;;;;;;;;;;;;;;;;;6117884;23;19924;-88
2021/08/06 17:58:22;;;;;;;;;;;;;;;;;;6141049;23;19925;-87
2021/08/06 18:00:51;;;;;;;;;;;;;;;;;;6114954;23;19921;-88
2021/08/06 18:03:21;;;;;;;;;;;;;;;;;;6142318;23;19925;-88
2021/08/06 18:05:49;;;;;;;;;;;;;;;;;;6116459;23;20345;-87
2021/08/06 18:08:17;;;;;;;;;;;;;;;;;;6116922;23;19925;-86
2021/08/06 18:10:45;;;;;;;;;;;;;;;;;;6142822;23;19925;-87
2021/08/06 18:13:13;;;;;;;;;;;;;;;;;;6116339;23;19998;-87
2021/08/06 18:15:42;;;;;;;;;;;;;;;;;;6139259;23;19925;-85
2021/08/06 18:18:10;;;;;;;;;;;;;;;;;;6137006;23;19920;-89
2021/08/06 18:20:40;;;;;;;;;;;;;;;;;;6116560;23;19924;-88
2021/08/06 18:23:08;;;;;;;;;;;;;;;;;;6091221;23;19925;-88
2021/08/06 18:25:36;;;;;;;;;;;;;;;;;;6090714;23;19925;-89
2021/08/06 18:28:05;;;;;;;;;;;;;;;;;;6099127;23;20296;-86
2021/08/06 18:30:36;;;;;;;;;;;;;;;;;;6121251;23;19940;-85
2021/08/06 18:33:04;;;;;;;;;;;;;;;;;;6157729;23;19921;-87
2021/08/06 18:35:36;;;;;;;;;;;;;;;;;;6121838;23;19925;-87
2021/08/06 18:38:05;;;;;;;;;;;;;;;;;;6095379;23;19928;-86
2021/08/06 18:40:34;;;;;;;;;;;;;;;;;;6097182;23;19927;-87
2021/08/06 18:43:02;;;;;;;;;;;;;;;;;;6123774;23;19928;-88
2021/08/06 18:45:30;;;;;;;;;;;;;;;;;;6121127;23;19932;-88
2021/08/06 18:47:59;;;;;;;;;;;;;;;;;;6120536;23;20364;-88
2021/08/06 18:50:30;;;;;;;;;;;;;;;;;;6099081;23;19925;-88
2021/08/06 18:52:58;;;;;;;;;;;;;;;;;;6125261;23;20260;-89
2021/08/06 18:55:28;;;;;;;;;;;;;;;;;;6099127;23;20265;-89
2021/08/06 18:57:57;;;;;;;;;;;;;;;;;;6095195;23;19989;-87
2021/08/06 19:00:25;;;;;;;;;;;;;;;;;;6119709;23;20281;-89
2021/08/06 19:03:02;;;;;;;;;;;;;;;;;;6095338;23;19928;-89
2021/08/06 19:05:31;;;;;;;;;;;;;;;;;;6119715;23;19927;-89
2021/08/06 19:07:59;;;;;;;;;;;;;;;;;;6095000;23;19931;-88
2021/08/06 19:10:29;;;;;;;;;;;;;;;;;;6094289;23;20376;-88
2021/08/06 19:12:57;;;;;;;;;;;;;;;;;;6097175;23;19928;-90
2021/08/06 19:15:26;;;;;;;;;;;;;;;;;;6122909;23;19932;-88
2021/08/06 19:17:54;;;;;;;;;;;;;;;;;;6123228;23;20345;-87
2021/08/06 19:20:22;;;;;;;;;;;;;;;;;;6096069;23;20498;-88
2021/08/06 19:22:51;;;;;;;;;;;;;;;;;;6092024;23;19925;-87
2021/08/06 19:25:20;;;;;;;;;;;;;;;;;;6124125;23;19935;-89
2021/08/06 19:27:50;;;;;;;;;;;;;;;;;;6119195;23;19927;-89
2021/08/06 19:30:18;;;;;;;;;;;;;;;;;;6098283;23;20341;-88
2021/08/06 19:32:47;;;;;;;;;;;;;;;;;;6099920;23;20376;-89
2021/08/06 19:35:15;;;;;;;;;;;;;;;;;;6099935;23;19927;-89
2021/08/06 19:37:46;;;;;;;;;;;;;;;;;;6124940;23;20230;-90
2021/08/06 19:40:28;;;;;;;;;;;;;;;;;;6097539;23;20238;-89
2021/08/06 19:42:58;;;;;;;;;;;;;;;;;;6119071;23;19931;-89
2021/08/06 19:45:26;;;;;;;;;;;;;;;;;;6122794;23;19924;-89
2021/08/06 19:47:55;;;;;;;;;;;;;;;;;;6099286;23;19928;-90
2021/08/06 19:50:23;;;;;;;;;;;;;;;;;;6099270;23;20345;-90
2021/08/06 19:52:51;;;;;;;;;;;;;;;;;;6122202;23;19932;-91
2021/08/06 19:55:20;;;;;;;;;;;;;;;;;;6098395;23;19927;-91
2021/08/06 19:57:48;;;;;;;;;;;;;;;;;;6103682;23;19944;-89
2021/08/06 20:00:18;;;;;;;;;;;;;;;;;;6102275;23;20359;-89
2021/08/06 20:02:46;;;;;;;;;;;;;;;;;;6102028;23;19927;-89
2021/08/06 20:05:15;;;;;;;;;;;;;;;;;;6100217;23;19928;-89
2021/08/06 20:07:45;;;;;;;;;;;;;;;;;;6107005;23;19920;-88
2021/08/06 20:10:15;;;;;;;;;;;;;;;;;;6100024;23;19924;-89
2021/08/06 20:12:43;;;;;;;;;;;;;;;;;;6104604;23;19931;-88
2021/08/06 20:15:12;;;;;;;;;;;;;;;;;;6104380;23;19931;-89
2021/08/06 20:17:41;;;;;;;;;;;;;;;;;;6102180;23;19924;-90
2021/08/06 20:20:10;;;;;;;;;;;;;;;;;;6124253;23;20686;-90
2021/08/06 20:22:39;;;;;;;;;;;;;;;;;;6129842;23;19921;-89
2021/08/06 20:25:09;;;;;;;;;;;;;;;;;;6128996;23;19931;-89
2021/08/06 20:27:38;;;;;;;;;;;;;;;;;;6156436;23;19925;-90
2021/08/06 20:30:06;;;;;;;;;;;;;;;;;;6128517;23;19920;-90
2021/08/06 20:32:35;;;;;;;;;;;;;;;;;;6130676;23;19930;-90
2021/08/06 20:35:05;;;;;;;;;;;;;;;;;;6149768;23;19921;-89
2021/08/06 20:37:34;;;;;;;;;;;;;;;;;;6152414;23;19921;-90
2021/08/06 20:40:02;;;;;;;;;;;;;;;;;;6151606;23;19954;-91
2021/08/06 20:42:32;;;;;;;;;;;;;;;;;;6129336;23;20273;-90
2021/08/06 20:45:03;;;;;;;;;;;;;;;;;;6163266;23;19931;-88
2021/08/06 20:47:32;;;;;;;;;;;;;;;;;;6127303;23;19920;-89
2021/08/06 20:50:00;;;;;;;;;;;;;;;;;;6126340;23;19943;-88
2021/08/06 20:52:29;;;;;;;;;;;;;;;;;;6123980;23;19926;-90
2021/08/06 20:54:58;;;;;;;;;;;;;;;;;;6155055;23;19927;-91
2021/08/06 20:57:26;;;;;;;;;;;;;;;;;;6152151;23;19920;-91
2021/08/06 20:59:54;;;;;;;;;;;;;;;;;;6154452;23;19921;-89
2021/08/06 21:02:22;;;;;;;;;;;;;;;;;;6154215;23;19920;-89
2021/08/06 21:04:51;;;;;;;;;;;;;;;;;;6127142;23;19921;-89
2021/08/06 21:07:19;;;;;;;;;;;;;;;;;;6149705;23;19925;-90
2021/08/06 21:09:49;;;;;;;;;;;;;;;;;;6151461;23;19942;-88
2021/08/06 21:12:17;;;;;;;;;;;;;;;;;;6148804;23;19924;-88
2021/08/06 21:14:45;;;;;;;;;;;;;;;;;;6144054;23;20316;-90
2021/08/06 21:17:13;;;;;;;;;;;;;;;;;;6141017;23;19932;-91
2021/08/06 21:19:42;;;;;;;;;;;;;;;;;;6121597;23;19924;-90
2021/08/06 21:22:10;;;;;;;;;;;;;;;;;;6155741;23;19935;-91
2021/08/06 21:24:38;;;;;;;;;;;;;;;;;;6149953;23;19932;-89
2021/08/06 21:27:08;;;;;;;;;;;;;;;;;;6146064;23;19924;-89
2021/08/06 21:29:36;;;;;;;;;;;;;;;;;;6147531;23;19927;-91
2021/08/06 21:32:04;;;;;;;;;;;;;;;;;;6146723;23;20242;-88
2021/08/06 21:34:33;;;;;;;;;;;;;;;;;;6123285;23;19921;-91
2021/08/06 21:37:01;;;;;;;;;;;;;;;;;;6148717;23;19928;-91
2021/08/06 21:39:30;;;;;;;;;;;;;;;;;;6147998;23;19924;-89
2021/08/06 21:41:59;;;;;;;;;;;;;;;;;;6124906;23;19931;-90
2021/08/06 21:44:29;;;;;;;;;;;;;;;;;;6124344;23;20568;-89
2021/08/06 21:46:57;;;;;;;;;;;;;;;;;;6126428;23;19920;-88
2021/08/06 21:49:25;;;;;;;;;;;;;;;;;;6126559;23;19924;-88
2021/08/06 21:51:53;;;;;;;;;;;;;;;;;;6150292;23;19979;-88
2021/08/06 21:54:22;;;;;;;;;;;;;;;;;;6149007;23;20544;-88
2021/08/06 21:56:50;;;;;;;;;;;;;;;;;;6148991;23;20905;-87
2021/08/06 21:59:18;;;;;;;;;;;;;;;;;;6123564;23;19940;-89
2021/08/06 22:01:48;;;;;;;;;;;;;;;;;;6124807;23;20246;-89
2021/08/06 22:04:16;;;;;;;;;;;;;;;;;;6124461;23;19921;-87
2021/08/06 22:06:44;;;;;;;;;;;;;;;;;;6125783;23;19928;-88
2021/08/06 22:09:12;;;;;;;;;;;;;;;;;;6149716;23;20260;-88
2021/08/06 22:11:41;;;;;;;;;;;;;;;;;;6121481;23;19925;-88
2021/08/06 22:14:09;;;;;;;;;;;;;;;;;;6126582;23;19927;-88
2021/08/06 22:16:37;;;;;;;;;;;;;;;;;;6124302;23;20265;-88
2021/08/06 22:19:07;;;;;;;;;;;;;;;;;;6121886;23;20230;-89
2021/08/06 22:21:35;;;;;;;;;;;;;;;;;;6125022;23;19927;-88
2021/08/06 22:24:03;;;;;;;;;;;;;;;;;;6123910;23;20344;-88
2021/08/06 22:26:31;;;;;;;;;;;;;;;;;;6146901;23;20443;-89
2021/08/06 22:28:59;;;;;;;;;;;;;;;;;;6117686;23;19948;-88
2021/08/06 22:31:28;;;;;;;;;;;;;;;;;;6120964;23;19924;-89
2021/08/06 22:33:56;;;;;;;;;;;;;;;;;;6147941;23;19921;-89
2021/08/06 22:36:25;;;;;;;;;;;;;;;;;;6150115;23;19925;-88